createdAt,value
2023-03-27T00:01:02.566Z,99800.38
2023-03-27T00:06:17.257Z,99811.09
2023-03-27T00:11:25.859Z,99802.66
2023-03-27T00:16:28.108Z,99813.44
2023-03-27T00:21:30.241Z,99803.53
2023-03-27T00:26:32.388Z,99794.59
2023-03-27T00:31:34.621Z,99808.91
2023-03-27T00:36:36.694Z,99796.34
2023-03-27T00:41:38.874Z,99768.81
2023-03-27T00:46:44.341Z,99789.34
2023-03-27T00:51:48.143Z,99775.78
2023-03-27T00:56:51.731Z,99770.78
2023-03-27T01:01:54.098Z,99769.28
2023-03-27T01:06:57.042Z,99757.22
2023-03-27T01:12:11.975Z,99752.31
2023-03-27T01:17:41.223Z,99735.84
2023-03-27T01:23:08.648Z,99745.03
2023-03-27T01:28:55.142Z,99739.09
2023-03-27T01:34:03.199Z,99721.59
2023-03-27T01:39:27.327Z,99715.25
2023-03-27T01:44:43.415Z,99684.50
2023-03-27T01:50:01.939Z,99706.78
2023-03-27T01:55:10.073Z,99709.09
2023-03-27T02:00:19.632Z,99686.72
2023-03-27T02:05:37.639Z,99680.00
2023-03-27T02:10:43.648Z,99666.59
2023-03-27T02:15:50.105Z,99667.63
2023-03-27T02:20:52.280Z,99658.25
2023-03-27T02:25:55.521Z,99655.31
2023-03-27T02:31:33.794Z,99672.03
2023-03-27T02:37:04.138Z,99670.81
2023-03-27T02:42:23.807Z,99668.38
2023-03-27T02:47:33.888Z,99638.94
2023-03-27T02:52:44.697Z,99655.09
2023-03-27T02:57:52.416Z,99658.34
2023-03-27T03:03:05.958Z,99661.25
2023-03-27T03:08:10.591Z,99632.38
2023-03-27T03:13:12.926Z,99629.41
2023-03-27T03:18:15.126Z,99609.88
2023-03-27T03:23:17.251Z,99617.19
2023-03-27T03:28:19.929Z,99617.00
2023-03-27T03:33:22.364Z,99604.91
2023-03-27T03:38:27.568Z,99603.56
2023-03-27T03:43:32.337Z,99606.00
2023-03-27T03:48:34.447Z,99594.13
2023-03-27T03:53:36.842Z,99589.78
2023-03-27T03:58:39.149Z,99598.53
2023-03-27T04:03:41.870Z,99624.09
2023-03-27T04:08:45.408Z,99604.63
2023-03-27T04:13:48.407Z,99630.31
2023-03-27T04:18:54.648Z,99630.38
2023-03-27T04:24:02.880Z,99627.03
2023-03-27T04:29:10.625Z,99638.63
2023-03-27T04:34:12.741Z,99615.03
2023-03-27T04:39:16.758Z,99608.84
2023-03-27T04:44:19.087Z,99614.75
2023-03-27T04:49:21.231Z,99598.56
2023-03-27T04:54:24.360Z,99590.53
2023-03-27T04:59:26.472Z,99600.75
2023-03-27T05:04:29.353Z,99606.47
2023-03-27T05:09:31.534Z,99605.50
2023-03-27T05:14:33.578Z,99605.78
2023-03-27T05:19:35.805Z,99609.84
2023-03-27T05:24:38.350Z,99589.19
2023-03-27T05:29:47.097Z,99609.59
2023-03-27T05:34:54.894Z,99613.00
2023-03-27T05:39:57.179Z,99602.28
2023-03-27T05:44:59.374Z,99617.06
2023-03-27T05:50:01.923Z,99576.00
2023-03-27T05:55:05.269Z,99581.13
2023-03-27T06:00:12.049Z,99577.25
2023-03-27T06:05:14.672Z,99576.34
2023-03-27T06:10:20.601Z,99557.47
2023-03-27T06:15:22.738Z,99570.13
2023-03-27T06:20:25.526Z,99582.56
2023-03-27T06:25:32.375Z,99562.50
2023-03-27T06:30:35.363Z,99562.06
2023-03-27T06:35:37.723Z,99571.94
2023-03-27T06:40:39.934Z,99543.31
2023-03-27T06:45:45.639Z,99557.53
2023-03-27T06:50:50.124Z,99563.97
2023-03-27T06:55:52.428Z,99500.97
2023-03-27T07:00:54.547Z,99544.81
2023-03-27T07:05:57.218Z,99520.97
2023-03-27T07:11:11.791Z,99508.22
2023-03-27T07:16:14.589Z,99513.72
2023-03-27T07:21:16.882Z,99518.84
2023-03-27T07:26:19.082Z,99511.34
2023-03-27T07:31:36.527Z,99491.56
2023-03-27T07:36:45.184Z,99492.31
2023-03-27T07:41:47.307Z,99474.97
2023-03-27T07:46:52.399Z,99469.38
2023-03-27T07:51:54.592Z,99472.84
2023-03-27T07:56:57.547Z,99448.69
2023-03-27T08:01:59.822Z,99463.84
2023-03-27T08:07:02.529Z,99443.84
2023-03-27T08:12:07.082Z,99421.59
2023-03-27T08:17:16.342Z,99418.41
2023-03-27T08:22:21.361Z,99398.72
2023-03-27T08:27:24.011Z,99395.66
2023-03-27T08:32:26.805Z,99382.69
2023-03-27T08:37:29.218Z,99384.97
2023-03-27T08:42:37.433Z,99379.28
2023-03-27T08:47:44.817Z,99346.44
2023-03-27T08:52:47.952Z,99358.13
2023-03-27T08:57:52.090Z,99346.44
2023-03-27T09:03:01.817Z,99328.22
2023-03-27T09:08:20.457Z,99318.16
2023-03-27T09:13:38.546Z,99315.97
2023-03-27T09:18:56.467Z,99287.19
2023-03-27T09:24:01.643Z,99298.56
2023-03-27T09:29:19.875Z,99280.84
2023-03-27T09:34:28.101Z,99265.22
2023-03-27T09:39:34.351Z,99249.84
2023-03-27T09:44:41.841Z,99209.75
2023-03-27T09:49:53.486Z,99223.63
2023-03-27T09:54:56.501Z,99193.88
2023-03-27T10:00:02.978Z,99173.88
2023-03-27T10:05:16.118Z,99162.63
2023-03-27T10:10:20.549Z,99181.72
2023-03-27T10:15:36.682Z,99193.03
2023-03-27T10:20:49.436Z,99159.47
2023-03-27T10:25:52.885Z,99166.25
2023-03-27T10:31:01.119Z,99148.84
2023-03-27T10:36:08.840Z,99151.25
2023-03-27T10:41:28.005Z,99145.84
2023-03-27T10:46:40.425Z,99137.22
2023-03-27T10:52:00.785Z,99133.06
2023-03-27T10:57:10.234Z,99107.50
2023-03-27T11:02:25.939Z,99107.56
2023-03-27T11:07:38.117Z,99098.75
2023-03-27T11:12:43.129Z,99098.84
2023-03-27T11:18:01.243Z,99092.16
2023-03-27T11:23:10.801Z,99089.41
2023-03-27T11:28:31.402Z,99088.28
2023-03-27T11:33:52.451Z,99089.97
2023-03-27T11:39:17.154Z,99062.91
2023-03-27T11:44:19.676Z,99058.41
2023-03-27T11:49:47.568Z,99065.41
2023-03-27T11:55:11.122Z,99053.16
2023-03-27T12:00:16.721Z,99062.50
2023-03-27T12:05:34.330Z,99065.03
2023-03-27T12:10:42.862Z,99052.66
2023-03-27T12:16:06.791Z,99046.75
2023-03-27T12:21:24.326Z,99032.19
2023-03-27T12:26:47.062Z,99055.25
2023-03-27T12:32:16.922Z,99036.28
2023-03-27T12:37:25.290Z,99031.41
2023-03-27T12:42:48.394Z,99048.81
2023-03-27T12:48:11.819Z,99040.66
2023-03-27T12:53:37.459Z,99048.34
2023-03-27T12:58:41.474Z,99021.66
2023-03-27T13:03:44.066Z,99057.19
2023-03-27T13:08:58.138Z,99035.91
2023-03-27T13:14:32.846Z,99057.09
2023-03-27T13:19:50.064Z,99036.50
2023-03-27T13:25:16.407Z,99048.81
2023-03-27T13:30:41.630Z,99049.56
2023-03-27T13:35:59.441Z,99032.09
2023-03-27T13:41:38.596Z,99030.47
2023-03-27T13:46:48.223Z,99016.91
2023-03-27T13:52:17.672Z,99026.75
2023-03-27T13:57:47.302Z,99044.41
2023-03-27T14:03:14.967Z,99063.47
2023-03-27T14:08:29.445Z,99027.31
2023-03-27T14:13:39.713Z,99003.34
2023-03-27T14:19:21.589Z,99030.34
2023-03-27T14:24:46.147Z,99027.50
2023-03-27T14:29:52.313Z,98992.63
2023-03-27T14:34:54.826Z,98974.66
2023-03-27T14:39:59.242Z,99015.03
2023-03-27T14:45:24.953Z,99036.41
2023-03-27T14:50:28.599Z,99025.88
2023-03-27T14:55:34.804Z,99020.63
2023-03-27T15:00:41.675Z,99005.34
2023-03-27T15:06:02.208Z,99034.72
2023-03-27T15:11:11.345Z,99029.72
2023-03-27T15:16:21.746Z,99061.81
2023-03-27T15:21:39.497Z,99066.66
2023-03-27T15:26:41.937Z,99051.94
2023-03-27T15:31:48.092Z,99061.38
2023-03-27T15:36:57.568Z,99037.75
2023-03-27T15:42:12.947Z,99048.31
2023-03-27T15:47:30.464Z,99061.88
2023-03-27T15:52:34.524Z,99069.63
2023-03-27T15:57:37.054Z,99061.63
2023-03-27T16:02:40.817Z,99064.50
2023-03-27T16:07:48.996Z,99076.22
2023-03-27T16:12:57.611Z,99069.53
2023-03-27T16:18:04.634Z,99083.13
2023-03-27T16:23:06.873Z,99060.59
2023-03-27T16:28:10.275Z,99078.81
2023-03-27T16:33:17.892Z,99085.69
2023-03-27T16:38:20.397Z,99090.47
2023-03-27T16:43:22.509Z,99097.88
2023-03-27T16:48:24.641Z,99090.81
2023-03-27T16:53:26.850Z,99089.44
2023-03-27T16:58:28.964Z,99094.63
2023-03-27T17:03:31.372Z,99101.94
2023-03-27T17:08:34.242Z,99116.03
2023-03-27T17:13:37.249Z,99119.03
2023-03-27T17:18:41.352Z,99144.78
2023-03-27T17:23:43.920Z,99134.53
2023-03-27T17:28:48.731Z,99142.16
2023-03-27T17:33:50.936Z,99161.75
2023-03-27T17:38:53.526Z,99186.19
2023-03-27T17:43:55.609Z,99157.66
2023-03-27T17:48:58.345Z,99160.63
2023-03-27T17:54:00.520Z,99133.97
2023-03-27T17:59:02.772Z,99143.66
2023-03-27T18:04:05.037Z,99153.09
2023-03-27T18:09:07.759Z,99165.66
2023-03-27T18:14:10.118Z,99151.88
2023-03-27T18:19:13.151Z,99156.56
2023-03-27T18:24:15.850Z,99147.50
2023-03-27T18:29:18.006Z,99152.69
2023-03-27T18:34:20.311Z,99160.09
2023-03-27T18:39:22.590Z,99158.50
2023-03-27T18:44:24.861Z,99191.72
2023-03-27T18:49:27.077Z,99157.06
2023-03-27T18:54:29.197Z,99161.44
2023-03-27T18:59:31.506Z,99199.72
2023-03-27T19:04:33.603Z,99209.09
2023-03-27T19:09:41.272Z,99186.19
2023-03-27T19:14:43.965Z,99157.66
2023-03-27T19:19:46.701Z,99154.50
2023-03-27T19:24:48.996Z,99178.31
2023-03-27T19:29:51.588Z,99165.03
2023-03-27T19:34:53.820Z,99151.47
2023-03-27T19:39:56.166Z,99192.00
2023-03-27T19:44:58.422Z,99205.59
2023-03-27T19:50:00.654Z,99200.16
2023-03-27T19:55:02.868Z,99205.00
2023-03-27T20:00:10.725Z,99222.75
2023-03-27T20:05:13.220Z,99230.03
2023-03-27T20:10:16.449Z,99243.91
2023-03-27T20:15:18.629Z,99237.81
2023-03-27T20:20:20.793Z,99230.31
2023-03-27T20:25:23.003Z,99193.50
2023-03-27T20:30:25.601Z,99196.44
2023-03-27T20:35:27.757Z,99194.31
2023-03-27T20:40:34.762Z,99189.47
2023-03-27T20:45:44.744Z,99195.38
2023-03-27T20:50:55.823Z,99182.09
2023-03-27T20:56:03.870Z,99180.50
2023-03-27T21:01:09.389Z,99179.94
2023-03-27T21:06:15.125Z,99163.75
2023-03-27T21:11:17.279Z,99159.59
2023-03-27T21:16:19.449Z,99156.00
2023-03-27T21:21:21.845Z,99181.94
2023-03-27T21:26:24.350Z,99169.88
2023-03-27T21:31:26.655Z,99197.63
2023-03-27T21:36:29.742Z,99185.41
2023-03-27T21:41:32.398Z,99207.88
2023-03-27T21:46:34.657Z,99210.63
2023-03-27T21:51:36.944Z,99213.59
2023-03-27T21:56:39.174Z,99218.41
2023-03-27T22:01:41.351Z,99242.16
2023-03-27T22:06:44.653Z,99256.28
2023-03-27T22:11:47.145Z,99247.94
2023-03-27T22:16:49.234Z,99249.94
2023-03-27T22:21:51.383Z,99263.03
2023-03-27T22:26:53.703Z,99251.00
2023-03-27T22:31:55.962Z,99268.38
2023-03-27T22:36:58.100Z,99252.91
2023-03-27T22:42:00.263Z,99270.91
2023-03-27T22:47:02.629Z,99247.88
2023-03-27T22:52:05.326Z,99277.13
2023-03-27T22:57:07.639Z,99284.75
2023-03-27T23:02:09.876Z,99304.94
2023-03-27T23:07:12.431Z,99311.63
2023-03-27T23:12:14.585Z,99321.47
2023-03-27T23:17:16.759Z,99349.28
2023-03-27T23:22:19.213Z,99339.47
2023-03-27T23:27:21.475Z,99351.38
2023-03-27T23:32:23.611Z,99340.16
2023-03-27T23:37:29.099Z,99357.72
2023-03-27T23:42:32.527Z,99365.00
2023-03-27T23:47:34.642Z,99374.84
2023-03-27T23:52:37.284Z,99385.38
2023-03-27T23:57:39.445Z,99390.09
